Galcaio Airport


Codes: HCMR/GLK
Name: Galcaio Airport
City: Galcaio
Country: Somalia
Elevation: 975 ft.
Wikipedia:

Photos at Galcaio Airport


   Photos courtesy of SpottingLog. You can add your own sightings and photos by signing up for a free trial today.



No photos found.

Weather at Galcaio Airport


Time (UTC)DescriptionTempratureWindCloud coverageVisibilityPressureHumidity
25-Jun-2024 12:00Broken Clouds32°C25 mph, SW70%10000m1007hPa35%
25-Jun-2024 15:00Broken Clouds32°C18 mph, SW80%10000m1007hPa35%
25-Jun-2024 18:00Overcast Clouds30°C22 mph, SW90%10000m1008hPa42%
25-Jun-2024 21:00Overcast Clouds26°C25 mph, SW99%10000m1009hPa59%
26-Jun-2024 00:00Overcast Clouds24°C22 mph, SW100%10000m1009hPa60%
26-Jun-2024 03:00Overcast Clouds23°C20 mph, SW100%10000m1011hPa62%
26-Jun-2024 06:00Overcast Clouds28°C27 mph, SW96%10000m1012hPa46%
26-Jun-2024 09:00Broken Clouds33°C27 mph, SW78%10000m1009hPa31%
26-Jun-2024 12:00Broken Clouds35°C25 mph, SW68%10000m1006hPa27%
26-Jun-2024 15:00Broken Clouds33°C22 mph, SW82%10000m1007hPa28%
26-Jun-2024 18:00Broken Clouds31°C20 mph, SW77%10000m1009hPa33%
26-Jun-2024 21:00Scattered Clouds27°C22 mph, SW45%10000m1010hPa52%
27-Jun-2024 00:00Scattered Clouds25°C22 mph, SW34%10000m1010hPa64%
27-Jun-2024 03:00Scattered Clouds24°C22 mph, SW48%10000m1011hPa69%
27-Jun-2024 06:00Scattered Clouds29°C29 mph, SW49%10000m1012hPa49%
27-Jun-2024 09:00Broken Clouds34°C29 mph, SW81%10000m1010hPa34%
27-Jun-2024 12:00Broken Clouds34°C29 mph, SW79%10000m1007hPa31%
27-Jun-2024 15:00Overcast Clouds33°C25 mph, SW100%10000m1009hPa34%
27-Jun-2024 18:00Overcast Clouds30°C25 mph, SW90%10000m1011hPa45%
27-Jun-2024 21:00Broken Clouds28°C25 mph, SW72%10000m1011hPa51%
28-Jun-2024 00:00Scattered Clouds26°C22 mph, SW39%10000m1011hPa67%
28-Jun-2024 03:00Clear Sky25°C20 mph, SW9%10000m1013hPa70%
28-Jun-2024 06:00Scattered Clouds29°C27 mph, SW48%10000m1014hPa53%
28-Jun-2024 09:00Broken Clouds34°C29 mph, SW56%10000m1010hPa35%
28-Jun-2024 12:00Broken Clouds34°C29 mph, SW74%10000m1008hPa33%
28-Jun-2024 15:00Broken Clouds32°C25 mph, SW53%10000m1008hPa37%
28-Jun-2024 18:00Broken Clouds29°C20 mph, SW67%10000m1011hPa49%
28-Jun-2024 21:00Overcast Clouds27°C22 mph, SW100%10000m1011hPa60%
29-Jun-2024 00:00Overcast Clouds25°C22 mph, SW95%10000m1010hPa69%
29-Jun-2024 03:00Overcast Clouds24°C20 mph, SW100%10000m1012hPa66%
29-Jun-2024 06:00Overcast Clouds28°C29 mph, SW100%10000m1013hPa36%
29-Jun-2024 09:00Overcast Clouds33°C31 mph, SW99%10000m1010hPa26%
29-Jun-2024 12:00Broken Clouds35°C29 mph, SW74%10000m1007hPa23%
29-Jun-2024 15:00Scattered Clouds32°C25 mph, SW40%10000m1008hPa29%
29-Jun-2024 18:00Broken Clouds30°C22 mph, SW70%10000m1010hPa37%
29-Jun-2024 21:00Overcast Clouds27°C22 mph, SW99%10000m1011hPa49%
30-Jun-2024 00:00Overcast Clouds25°C22 mph, SW100%10000m1010hPa65%
30-Jun-2024 03:00Overcast Clouds24°C22 mph, SW100%10000m1011hPa69%
30-Jun-2024 06:00Overcast Clouds28°C27 mph, SW100%10000m1013hPa51%
30-Jun-2024 09:00Broken Clouds33°C29 mph, SW80%10000m1010hPa30%